Time;durP1;ratioP1;P1;durP2;ratioP2;P2;SDS_P1;SDS_P2;PMS_P1;PMS_P2;Temp;Humidity;BMP_temperature;BMP_pressure;BME280_temperature;BME280_humidity;BME280_pressure;Samples;Min_cycle;Max_cycle;Signal;HPM_P1;HPM_P2
2022/12/04 00:00:19;;;;;;;10.80;6.90;;;;;;;19.43;28.04;102126.60;105466;1284;72409;-90
2022/12/04 00:02:44;;;;;;;9.00;6.60;;;;;;;19.43;28.05;102126.60;104774;1293;69209;-91
2022/12/04 00:05:10;;;;;;;10.60;7.30;;;;;;;19.43;27.99;102124.51;105266;1292;69178;-92
2022/12/04 00:07:35;;;;;;;10.50;7.20;;;;;;;19.43;27.95;102121.92;105070;1287;69261;-93
2022/12/04 00:10:01;;;;;;;11.30;7.30;;;;;;;19.43;28.16;102121.77;105153;1287;69292;-90
2022/12/04 00:12:31;;;;;;;10.50;7.10;;;;;;;19.43;28.05;102124.11;105074;1288;69135;-90
2022/12/04 00:15:06;;;;;;;12.30;7.70;;;;;;;19.43;28.19;102123.45;105138;1291;69075;31
2022/12/04 00:17:31;;;;;;;11.60;7.80;;;;;;;19.43;28.07;102124.83;104837;1287;74386;-91
2022/12/04 00:19:57;;;;;;;9.30;6.70;;;;;;;19.44;28.09;102121.54;105437;1289;69178;-90
2022/12/04 00:22:23;;;;;;;10.30;7.10;;;;;;;19.44;28.12;102119.60;105347;1294;69188;-91
2022/12/04 00:24:48;;;;;;;8.90;6.90;;;;;;;19.44;28.21;102123.74;105298;1294;68333;-90
2022/12/04 00:27:14;;;;;;;9.90;7.20;;;;;;;19.44;28.09;102118.13;105344;1288;68066;-90
2022/12/04 00:29:39;;;;;;;11.30;7.10;;;;;;;19.44;28.23;102120.38;105104;1294;82283;-92
2022/12/04 00:32:05;;;;;;;10.00;6.80;;;;;;;19.45;28.11;102121.61;105299;1288;69244;-91
2022/12/04 00:34:30;;;;;;;9.30;6.90;;;;;;;19.45;28.19;102121.63;105262;1285;69038;-91
2022/12/04 00:36:56;;;;;;;9.00;6.80;;;;;;;19.46;28.24;102123.53;105151;1285;66678;-91
2022/12/04 00:39:21;;;;;;;11.20;7.00;;;;;;;19.45;28.22;102125.46;105105;1286;69240;-89
2022/12/04 00:41:55;;;;;;;9.50;6.50;;;;;;;19.46;28.23;102124.26;105192;1291;69194;31
2022/12/04 00:44:21;;;;;;;10.60;7.00;;;;;;;19.46;28.16;102124.63;105349;1286;67657;-90
2022/12/04 00:46:46;;;;;;;11.00;6.90;;;;;;;19.46;28.13;102125.13;105383;1282;69034;-89
2022/12/04 00:49:12;;;;;;;9.50;6.90;;;;;;;19.46;28.17;102121.44;105112;1287;67704;-92
2022/12/04 00:51:37;;;;;;;11.30;7.30;;;;;;;19.46;28.34;102123.92;104902;1288;69145;-92
2022/12/04 00:54:07;;;;;;;8.90;6.50;;;;;;;19.47;28.32;102122.14;105378;1283;69083;-92
2022/12/04 00:56:33;;;;;;;8.50;6.30;;;;;;;19.47;28.41;102121.48;104652;1293;68954;-91
2022/12/04 00:58:58;;;;;;;10.70;6.50;;;;;;;19.47;28.35;102117.96;105370;1284;69216;-90
2022/12/04 01:01:28;;;;;;;10.00;6.40;;;;;;;19.47;28.30;102117.96;105441;1292;69160;-90
2022/12/04 01:03:53;;;;;;;9.10;6.70;;;;;;;19.47;28.31;102115.46;105353;1294;72467;-90
2022/12/04 01:06:23;;;;;;;10.40;6.50;;;;;;;19.47;28.37;102117.46;105184;1295;69237;-90
2022/12/04 01:08:56;;;;;;;8.70;6.50;;;;;;;19.48;28.39;102114.15;105215;1295;69034;-88
2022/12/04 01:11:22;;;;;;;7.90;5.70;;;;;;;19.48;28.34;102115.96;105110;1291;74420;-90
2022/12/04 01:13:52;;;;;;;8.30;6.40;;;;;;;19.48;28.41;102114.02;105276;1276;68395;-90
2022/12/04 01:16:19;;;;;;;7.90;5.80;;;;;;;19.49;28.41;102112.66;105338;1288;73340;-90
2022/12/04 01:18:45;;;;;;;8.30;5.90;;;;;;;19.49;28.58;102114.65;105288;1276;69144;-92
2022/12/04 01:21:13;;;;;;;8.20;6.20;;;;;;;19.49;28.45;102119.70;105098;1290;69137;-91
2022/12/04 01:23:46;;;;;;;8.20;5.90;;;;;;;19.50;28.49;102124.90;104794;1292;74440;31
2022/12/04 01:26:11;;;;;;;8.60;6.00;;;;;;;19.49;28.49;102122.08;104646;1290;82061;-91
2022/12/04 01:28:41;;;;;;;7.20;5.80;;;;;;;19.49;28.50;102123.71;105008;1296;68326;-92
2022/12/04 01:31:08;;;;;;;8.20;5.90;;;;;;;19.50;28.52;102121.38;105373;1295;69115;-92
2022/12/04 01:36:28;;;;;;;8.30;5.70;;;;;;;19.49;28.55;102117.54;105421;1287;74508;-90
2022/12/04 01:38:54;;;;;;;7.70;5.60;;;;;;;19.50;28.54;102120.25;105298;1290;69168;-90
2022/12/04 01:41:23;;;;;;;7.80;5.60;;;;;;;19.50;28.67;102119.42;104866;1292;69306;-91
2022/12/04 01:44:08;;;;;;;7.40;5.50;;;;;;;19.50;28.52;102121.75;105443;1287;69154;-90
2022/12/04 01:46:39;;;;;;;7.30;5.30;;;;;;;19.51;28.55;102127.27;105483;1278;68223;-90
2022/12/04 01:49:10;;;;;;;;;;;;;;;19.50;28.50;102119.84;105337;1293;74449;-90
2022/12/04 01:51:38;;;;;;;7.20;4.90;;;;;;;19.48;28.63;102117.65;105348;1280;81960;-90
2022/12/04 01:54:10;;;;;;;7.80;5.10;;;;;;;19.49;28.67;102117.21;105195;1282;72324;-90
2022/12/04 01:56:47;;;;;;;6.50;4.90;;;;;;;19.49;28.64;102114.66;105129;1287;69058;31
2022/12/04 01:59:14;;;;;;;6.40;5.00;;;;;;;19.50;28.62;102114.63;104745;1293;69251;-92
2022/12/04 02:01:51;;;;;;;7.50;4.90;;;;;;;19.50;28.65;102105.48;105315;1278;75437;-91
2022/12/04 02:04:21;;;;;;;7.30;4.80;;;;;;;19.50;28.74;102105.30;105167;1287;82182;-92
2022/12/04 02:06:47;;;;;;;6.70;5.10;;;;;;;19.51;28.68;102103.66;105112;1291;72329;-93
2022/12/04 02:09:30;;;;;;;5.80;4.30;;;;;;;19.50;28.67;102098.66;105010;1288;69282;-91
2022/12/04 02:12:42;;;;;;;6.50;4.60;;;;;;;19.50;28.86;102097.59;105432;1279;69057;-89
2022/12/04 02:15:21;;;;;;;6.40;4.80;;;;;;;19.50;28.77;102102.74;105120;1288;74422;-91
2022/12/04 02:18:23;;;;;;;6.60;4.90;;;;;;;19.51;28.73;102099.90;105314;1288;82016;-90
2022/12/04 02:21:05;;;;;;;5.20;4.50;;;;;;;19.51;28.79;102100.05;104903;1285;72678;-91
2022/12/04 02:24:07;;;;;;;5.40;4.20;;;;;;;19.51;28.78;102101.23;104774;1296;70016;31
2022/12/04 02:26:48;;;;;;;6.20;4.50;;;;;;;19.51;28.71;102102.05;105019;1294;69037;31
2022/12/04 02:32:42;;;;;;;5.80;4.30;;;;;;;19.51;28.76;102100.37;104893;1293;82165;-93
2022/12/04 02:46:56;;;;;;;6.90;4.50;;;;;;;19.52;28.83;102100.73;104802;1294;82660;-91
2022/12/04 02:49:33;;;;;;;6.00;4.20;;;;;;;19.52;28.76;102100.73;105191;1288;72567;-92
2022/12/04 02:51:58;;;;;;;5.00;3.90;;;;;;;19.52;28.83;102100.56;105198;1288;66681;-91
2022/12/04 02:54:27;;;;;;;6.00;4.00;;;;;;;19.52;29.03;102095.35;105345;1286;69273;-91
2022/12/04 02:56:53;;;;;;;5.40;4.10;;;;;;;19.53;28.85;102094.92;105318;1294;74336;-89
2022/12/04 02:59:31;;;;;;;5.50;3.90;;;;;;;19.53;28.92;102096.60;105060;1288;69188;31
2022/12/04 03:01:59;;;;;;;5.70;4.00;;;;;;;19.54;28.96;102102.03;104860;1288;73053;-91
2022/12/04 03:04:26;;;;;;;4.90;4.00;;;;;;;19.54;28.87;102102.50;105220;1279;66970;-92
2022/12/04 03:06:56;;;;;;;4.50;3.90;;;;;;;19.54;28.79;102104.43;104870;1274;69140;-92
2022/12/04 03:09:32;;;;;;;5.00;4.20;;;;;;;19.54;28.95;102106.59;105130;1288;74203;-90
2022/12/04 03:12:03;;;;;;;4.80;3.60;;;;;;;19.55;29.00;102106.66;105294;1291;82094;-92
2022/12/04 03:14:35;;;;;;;5.10;4.10;;;;;;;19.55;28.98;102109.21;105265;1288;72514;-91
2022/12/04 03:19:49;;;;;;;5.00;3.90;;;;;;;19.55;28.91;102121.80;105646;1282;69198;-92
2022/12/04 03:22:17;;;;;;;4.70;3.70;;;;;;;19.56;28.99;102109.00;105215;1284;75311;-92
2022/12/04 03:24:44;;;;;;;5.00;3.80;;;;;;;19.56;28.92;102100.90;105765;1292;82091;-92
2022/12/04 03:27:16;;;;;;;4.80;3.70;;;;;;;19.57;29.01;102101.11;107226;1285;72497;-91
2022/12/04 03:30:02;;;;;;;4.90;3.60;;;;;;;19.57;28.86;102105.20;107017;1279;66424;-91
2022/12/04 03:32:37;;;;;;;4.80;3.90;;;;;;;19.58;28.92;102102.12;107504;1276;66216;-87
2022/12/04 03:37:40;;;;;;;4.80;3.60;;;;;;;19.60;29.05;102103.23;105624;1282;81568;-92
2022/12/04 03:40:16;;;;;;;4.30;3.30;;;;;;;19.62;29.03;102101.17;104944;1293;72604;-92
2022/12/04 03:42:45;;;;;;;3.90;3.20;;;;;;;19.62;28.89;102103.94;106845;1279;66506;-90
2022/12/04 03:45:39;;;;;;;4.70;3.80;;;;;;;19.63;29.05;102100.23;106354;1288;69090;-92
2022/12/04 03:48:08;;;;;;;4.70;3.50;;;;;;;19.63;28.98;102104.64;106658;1291;75005;-90
2022/12/04 03:50:47;;;;;;;4.20;3.50;;;;;;;19.64;29.01;102105.94;105543;1288;82634;-90
2022/12/04 03:53:26;;;;;;;4.60;3.40;;;;;;;19.65;29.10;102107.86;105452;1276;72550;31
2022/12/04 03:58:30;;;;;;;4.10;3.30;;;;;;;19.66;29.00;102103.56;105336;1284;69048;-92
2022/12/04 04:00:55;;;;;;;4.30;3.50;;;;;;;19.67;28.94;102101.74;105264;1288;69169;-93
2022/12/04 04:03:23;;;;;;;4.50;3.50;;;;;;;19.67;29.01;102100.78;105277;1286;69112;-91
2022/12/04 04:06:09;;;;;;;3.80;3.20;;;;;;;19.67;28.80;102103.50;105205;1287;71504;-92
2022/12/04 04:08:36;;;;;;;3.90;3.40;;;;;;;19.67;28.99;102105.50;105407;1287;69121;-90
2022/12/04 04:11:20;;;;;;;5.00;3.50;;;;;;;19.68;29.00;102104.68;105286;1289;69157;31
2022/12/04 04:25:06;;;;;;;4.00;3.20;;;;;;;19.69;29.00;102101.45;105391;1280;68867;-91
2022/12/04 04:27:31;;;;;;;4.30;3.20;;;;;;;19.69;29.01;102104.32;105231;1285;75461;-92
2022/12/04 04:29:57;;;;;;;3.60;3.20;;;;;;;19.70;29.00;102102.70;105329;1287;69379;-92
2022/12/04 04:32:31;;;;;;;4.30;3.20;;;;;;;19.70;29.02;102099.98;105263;1282;69166;-91
2022/12/04 04:35:18;;;;;;;4.10;3.20;;;;;;;19.71;28.91;102100.68;105197;1288;69077;31
2022/12/04 04:40:43;;;;;;;3.50;3.20;;;;;;;19.71;29.04;102111.32;106371;1290;73226;-92
2022/12/04 04:43:26;;;;;;;4.50;3.40;;;;;;;19.72;29.16;102112.57;106354;1284;82127;-91
2022/12/04 04:46:43;;;;;;;3.90;2.90;;;;;;;19.73;29.11;102113.41;107110;1284;72335;-90
2022/12/04 04:49:09;;;;;;;3.50;2.90;;;;;;;19.73;29.00;102112.70;105935;1284;66602;-92
2022/12/04 04:51:35;;;;;;;4.20;3.50;;;;;;;19.74;29.07;102115.34;105175;1292;69170;-91
2022/12/04 04:54:06;;;;;;;3.80;3.40;;;;;;;19.75;29.02;102113.05;105200;1287;67870;-91
2022/12/04 04:56:32;;;;;;;4.70;3.00;;;;;;;19.76;29.04;102111.45;104995;1293;82915;-91
2022/12/04 04:58:57;;;;;;;4.20;3.40;;;;;;;19.76;29.03;102108.30;104903;1287;69273;-91
2022/12/04 05:01:25;;;;;;;3.40;3.10;;;;;;;19.77;29.05;102114.03;104870;1291;69272;-91
2022/12/04 05:03:51;;;;;;;3.70;3.00;;;;;;;19.77;29.05;102115.73;104795;1281;69029;-91
2022/12/04 05:06:16;;;;;;;3.20;2.90;;;;;;;19.77;28.80;102116.04;104884;1292;69294;-91
2022/12/04 05:08:43;;;;;;;3.60;3.10;;;;;;;19.77;28.88;102104.56;105021;1294;69272;-91
2022/12/04 05:11:12;;;;;;;3.20;2.90;;;;;;;19.77;28.94;102105.11;104611;1293;69141;-91
2022/12/04 05:13:38;;;;;;;3.60;3.00;;;;;;;19.78;28.93;102102.84;104916;1287;69269;-91
2022/12/04 05:16:05;;;;;;;3.40;2.90;;;;;;;19.78;28.98;102097.46;104842;1298;69172;-92
2022/12/04 05:18:31;;;;;;;3.40;3.10;;;;;;;19.78;28.87;102096.01;104888;1292;69169;-91
2022/12/04 05:20:56;;;;;;;3.10;2.80;;;;;;;19.78;28.91;102094.88;104948;1292;67162;-91
2022/12/04 05:23:22;;;;;;;3.80;3.20;;;;;;;19.79;29.07;102101.13;104610;1289;69195;-91
2022/12/04 05:25:47;;;;;;;3.50;3.00;;;;;;;19.79;28.84;102102.80;104499;1289;69222;-91
2022/12/04 05:28:13;;;;;;;3.30;3.00;;;;;;;19.79;28.93;102107.13;104538;1296;74702;-91
2022/12/04 05:30:38;;;;;;;3.20;2.90;;;;;;;19.79;29.01;102106.07;104583;1297;69195;-91
2022/12/04 05:33:04;;;;;;;4.10;3.20;;;;;;;19.80;28.97;102110.15;105408;1296;69181;-91
2022/12/04 05:35:29;;;;;;;4.30;3.00;;;;;;;19.80;28.98;102116.39;104821;1289;69250;-91
2022/12/04 05:37:55;;;;;;;3.70;2.90;;;;;;;19.80;29.04;102122.48;104921;1288;69275;-89
2022/12/04 05:40:20;;;;;;;3.60;3.10;;;;;;;19.81;28.89;102120.21;104663;1286;69189;-92
2022/12/04 05:42:46;;;;;;;3.80;3.00;;;;;;;19.82;29.08;102123.72;104854;1288;69262;-92
2022/12/04 05:45:11;;;;;;;3.60;3.10;;;;;;;19.82;29.04;102125.15;104921;1295;69051;-92
2022/12/04 05:47:38;;;;;;;3.60;2.80;;;;;;;19.83;29.02;102123.69;104929;1288;69272;-92
2022/12/04 05:50:12;;;;;;;3.70;3.10;;;;;;;19.83;29.00;102122.78;105040;1291;81958;-90
2022/12/04 05:55:14;;;;;;;3.80;3.10;;;;;;;19.85;28.98;102128.02;104850;1295;69631;-91
2022/12/04 05:57:39;;;;;;;4.10;3.10;;;;;;;19.85;28.86;102129.06;104752;1283;69215;-91
2022/12/04 06:00:05;;;;;;;3.70;2.90;;;;;;;19.85;28.92;102132.44;105019;1292;69156;-90
2022/12/04 06:02:32;;;;;;;3.80;3.30;;;;;;;19.86;29.03;102139.70;104963;1291;69138;-91
2022/12/04 06:04:58;;;;;;;3.60;3.20;;;;;;;19.86;29.07;102134.77;105317;1287;69011;-90
2022/12/04 06:07:23;;;;;;;3.40;3.00;;;;;;;19.87;28.91;102134.69;104584;1288;69185;-90
2022/12/04 06:09:49;;;;;;;4.00;3.40;;;;;;;19.88;29.11;102132.02;105067;1294;69056;-91
2022/12/04 06:12:14;;;;;;;4.20;3.60;;;;;;;19.88;28.86;102137.55;105017;1291;69091;-90
2022/12/04 06:14:40;;;;;;;4.30;3.00;;;;;;;19.89;28.84;102146.98;104574;1293;69595;-92
2022/12/04 06:17:05;;;;;;;3.60;2.80;;;;;;;19.90;28.98;102152.17;104486;1274;69274;-92
2022/12/04 06:19:35;;;;;;;3.60;3.10;;;;;;;19.91;29.02;102155.58;104543;1294;69282;-92
2022/12/04 06:22:00;;;;;;;3.60;3.10;;;;;;;19.91;29.02;102156.35;104890;1288;80134;-92
2022/12/04 06:24:45;;;;;;;3.20;2.90;;;;;;;19.92;29.03;102159.39;105040;1288;68236;-91
2022/12/04 06:27:11;;;;;;;3.20;2.80;;;;;;;19.93;29.03;102160.95;105236;1285;69032;-92
2022/12/04 06:29:36;;;;;;;3.80;3.30;;;;;;;19.94;29.01;102163.80;105226;1286;69145;-92
2022/12/04 06:32:02;;;;;;;4.10;3.30;;;;;;;19.95;29.13;102167.52;105131;1286;69154;-92
2022/12/04 06:36:54;;;;;;;3.50;3.10;;;;;;;19.97;29.02;102167.21;105071;1285;66983;-91
2022/12/04 06:39:20;;;;;;;3.60;3.30;;;;;;;19.98;28.98;102173.33;105373;1282;69162;-91
2022/12/04 06:41:48;;;;;;;3.30;3.00;;;;;;;19.99;29.13;102176.92;105039;1287;73497;-91
2022/12/04 06:44:18;;;;;;;3.80;3.10;;;;;;;20.00;28.99;102173.27;104861;1295;82148;-92
2022/12/04 06:46:47;;;;;;;3.90;2.90;;;;;;;20.01;28.95;102172.42;105160;1287;72340;-90
2022/12/04 06:49:13;;;;;;;3.90;3.50;;;;;;;20.02;29.00;102167.59;104974;1295;69031;-90
2022/12/04 06:51:39;;;;;;;3.40;3.10;;;;;;;20.02;29.02;102172.23;105337;1288;69222;-89
2022/12/04 06:54:05;;;;;;;3.90;3.20;;;;;;;20.03;28.92;102172.09;104933;1288;69097;-92
2022/12/04 06:56:31;;;;;;;3.90;3.10;;;;;;;20.04;28.90;102181.47;104963;1288;69227;-91
2022/12/04 06:59:00;;;;;;;3.80;3.30;;;;;;;20.04;28.92;102177.04;104983;1278;69186;-92
2022/12/04 07:01:35;;;;;;;3.80;3.00;;;;;;;20.05;28.93;102176.20;104828;1287;69023;31
2022/12/04 07:04:02;;;;;;;4.60;3.20;;;;;;;20.06;28.90;102176.88;104547;1294;69136;-91
2022/12/04 07:06:35;;;;;;;3.80;3.10;;;;;;;20.07;28.87;102178.86;105086;1288;74416;-90
2022/12/04 07:09:06;;;;;;;4.00;3.30;;;;;;;20.08;28.92;102175.30;105249;1285;82205;-90
2022/12/04 07:11:32;;;;;;;3.70;3.20;;;;;;;20.09;29.02;102174.46;105277;1288;72488;-89
2022/12/04 07:14:02;;;;;;;3.40;3.10;;;;;;;20.09;29.02;102170.34;104927;1289;69303;-92
2022/12/04 07:16:36;;;;;;;5.10;3.50;;;;;;;20.10;28.93;102172.15;105369;1288;69033;31
2022/12/04 07:19:01;;;;;;;4.10;3.60;;;;;;;20.10;29.00;102172.16;104842;1291;74525;-92
2022/12/04 07:21:29;;;;;;;4.30;3.40;;;;;;;20.11;28.95;102166.39;105410;1287;69195;-90
2022/12/04 07:23:59;;;;;;;4.40;3.40;;;;;;;20.12;29.00;102167.98;105346;1288;72548;-90
2022/12/04 07:26:25;;;;;;;3.50;3.00;;;;;;;20.12;28.92;102171.98;105466;1293;69022;-91
2022/12/04 07:28:55;;;;;;;5.50;3.00;;;;;;;20.13;28.89;102173.54;105315;1288;69047;-91
2022/12/04 07:31:27;;;;;;;4.10;3.50;;;;;;;20.15;28.91;102179.52;105272;1293;74372;31
2022/12/04 07:33:53;;;;;;;4.10;3.10;;;;;;;20.15;28.88;102184.88;104978;1288;82231;-92
2022/12/04 07:39:08;;;;;;;4.00;3.10;;;;;;;20.18;29.09;102187.91;105773;1283;69073;-92
2022/12/04 07:41:34;;;;;;;3.60;2.90;;;;;;;20.19;28.84;102195.10;105819;1285;67810;-92
2022/12/04 07:44:00;;;;;;;3.60;3.10;;;;;;;20.19;28.87;102195.89;105232;1288;66827;-93
2022/12/04 07:46:29;;;;;;;3.70;3.10;;;;;;;20.20;28.92;102193.92;105389;1276;69227;-89
2022/12/04 07:48:55;;;;;;;3.80;3.30;;;;;;;20.21;28.91;102196.83;105068;1293;72475;-92
2022/12/04 07:51:22;;;;;;;3.50;3.00;;;;;;;20.22;28.96;102197.92;104937;1282;69472;-92
2022/12/04 07:53:49;;;;;;;3.80;3.10;;;;;;;20.23;28.96;102199.17;104902;1287;69215;-93
2022/12/04 07:56:14;;;;;;;3.60;3.10;;;;;;;20.23;28.82;102200.77;105200;1291;68239;-92
2022/12/04 07:58:45;;;;;;;3.10;2.80;;;;;;;20.24;29.06;102204.27;105369;1292;69522;-89
2022/12/04 08:03:41;;;;;;;4.00;3.10;;;;;;;20.25;29.02;102203.23;105557;1290;68332;-91
2022/12/04 08:06:07;;;;;;;3.40;2.90;;;;;;;20.26;28.91;102205.39;105331;1288;69142;-91
2022/12/04 08:08:33;;;;;;;3.70;2.90;;;;;;;20.27;29.02;102209.15;105117;1288;69051;-92
2022/12/04 08:10:58;;;;;;;4.30;3.30;;;;;;;20.27;28.79;102208.40;105135;1292;69195;-89
2022/12/04 08:13:28;;;;;;;3.30;3.00;;;;;;;20.27;28.93;102209.11;104978;1283;69239;-90
2022/12/04 08:15:53;;;;;;;3.00;2.70;;;;;;;20.29;28.94;102212.50;104957;1288;69182;-92
2022/12/04 08:18:19;;;;;;;3.60;3.00;;;;;;;20.29;28.90;102208.96;105326;1292;68212;-92
2022/12/04 08:20:44;;;;;;;3.50;3.10;;;;;;;20.29;28.95;102201.25;105269;1292;66890;-92
2022/12/04 08:23:10;;;;;;;3.90;3.40;;;;;;;20.30;28.93;102203.08;105254;1285;69293;-93
2022/12/04 08:25:39;;;;;;;3.80;3.30;;;;;;;20.31;28.95;102203.91;105358;1282;69205;-92
2022/12/04 08:30:32;;;;;;;4.10;3.30;;;;;;;20.33;28.89;102207.86;105560;1285;69044;-91
2022/12/04 08:32:57;;;;;;;3.70;3.00;;;;;;;20.33;29.01;102205.35;105175;1278;69098;-90
2022/12/04 08:35:23;;;;;;;3.10;2.80;;;;;;;20.34;28.78;102197.21;105187;1287;69134;-90
2022/12/04 08:37:49;;;;;;;3.20;2.70;;;;;;;20.35;28.89;102199.83;105306;1288;67246;-90
2022/12/04 08:40:19;;;;;;;3.50;3.10;;;;;;;20.35;28.92;102197.54;105290;1283;69140;-90
2022/12/04 08:42:44;;;;;;;3.50;3.20;;;;;;;20.36;29.10;102197.05;105276;1295;82221;-91
2022/12/04 08:45:10;;;;;;;4.00;3.10;;;;;;;20.36;28.99;102195.98;105308;1286;69199;-91
2022/12/04 08:47:43;;;;;;;4.00;3.30;;;;;;;20.37;29.05;102194.27;105356;1288;66661;-92
2022/12/04 08:50:13;;;;;;;4.30;3.80;;;;;;;20.36;28.97;102191.58;105660;1288;68965;-90
2022/12/04 08:52:43;;;;;;;3.00;2.70;;;;;;;20.38;28.91;102193.12;105439;1282;74437;-90
2022/12/04 08:55:09;;;;;;;3.30;3.00;;;;;;;20.38;28.96;102189.86;105353;1285;82119;-89
2022/12/04 08:57:34;;;;;;;3.10;2.70;;;;;;;20.39;29.10;102186.71;105186;1287;67994;-92
2022/12/04 09:00:00;;;;;;;4.30;3.30;;;;;;;20.40;29.09;102182.59;105663;1295;69120;-91
2022/12/04 09:02:26;;;;;;;3.80;3.00;;;;;;;20.40;29.06;102178.78;105508;1293;67522;-92
2022/12/04 09:04:51;;;;;;;3.80;3.00;;;;;;;20.41;28.99;102172.73;105278;1292;69154;-91
2022/12/04 09:07:16;;;;;;;3.70;3.10;;;;;;;20.41;29.00;102170.78;105236;1285;72422;-90
2022/12/04 09:09:42;;;;;;;3.40;3.10;;;;;;;20.41;29.08;102176.81;105141;1286;69130;-90
2022/12/04 09:12:07;;;;;;;3.40;3.10;;;;;;;20.41;29.04;102175.69;105474;1290;69182;-90
2022/12/04 09:14:33;;;;;;;3.70;2.70;;;;;;;20.42;29.08;102173.66;105317;1294;69131;-92
2022/12/04 09:16:58;;;;;;;3.10;2.80;;;;;;;20.42;29.02;102167.94;105160;1281;69186;-92
2022/12/04 09:19:24;;;;;;;4.80;3.30;;;;;;;20.43;29.10;102168.23;105644;1288;66929;-91
2022/12/04 09:24:18;;;;;;;3.40;2.90;;;;;;;20.42;29.16;102163.75;105469;1276;73775;-92
2022/12/04 09:26:43;;;;;;;4.70;2.90;;;;;;;20.42;29.17;102160.14;104859;1292;69261;-92
2022/12/04 09:29:09;;;;;;;4.10;3.10;;;;;;;20.42;29.11;102162.79;104981;1288;69153;-92
2022/12/04 09:31:34;;;;;;;3.40;2.90;;;;;;;20.42;29.12;102163.52;104795;1293;69260;-91
2022/12/04 09:34:00;;;;;;;3.60;2.90;;;;;;;20.43;28.95;102155.94;105012;1291;68942;-92
2022/12/04 09:36:26;;;;;;;3.40;3.00;;;;;;;20.43;28.99;102154.98;104850;1288;69229;-91
2022/12/04 09:38:52;;;;;;;3.80;2.90;;;;;;;20.42;29.02;102151.38;105239;1293;69230;-92
2022/12/04 09:41:39;;;;;;;3.50;3.20;;;;;;;20.42;28.93;102149.54;105059;1288;69177;-92
2022/12/04 09:44:10;;;;;;;3.20;2.90;;;;;;;20.42;29.17;102140.39;105255;1292;69180;-92
2022/12/04 09:46:50;;;;;;;3.60;2.90;;;;;;;20.41;29.03;102139.59;105172;1285;74315;-91
2022/12/04 09:49:23;;;;;;;3.80;3.00;;;;;;;20.41;29.02;102136.11;104953;1291;82024;-92
2022/12/04 09:51:49;;;;;;;3.20;2.90;;;;;;;20.41;29.15;102139.63;105000;1285;73472;-92
2022/12/04 09:54:19;;;;;;;3.00;2.70;;;;;;;20.41;29.10;102144.69;105076;1289;67118;-92
2022/12/04 09:56:50;;;;;;;3.10;2.80;;;;;;;20.41;29.13;102139.89;105249;1289;69660;-92
2022/12/04 09:59:21;;;;;;;3.10;2.80;;;;;;;20.40;29.22;102134.86;105239;1293;74266;-92
2022/12/04 10:02:04;;;;;;;3.00;2.70;;;;;;;20.40;29.04;102132.50;104952;1288;81916;-92
2022/12/04 10:04:44;;;;;;;3.90;3.10;;;;;;;20.41;29.12;102133.35;105656;1287;72473;-91
2022/12/04 10:07:14;;;;;;;4.70;2.90;;;;;;;20.42;29.17;102128.67;105044;1288;69209;-92
2022/12/04 10:10:07;;;;;;;3.10;2.80;;;;;;;20.41;29.34;102126.11;105108;1288;69135;-92
2022/12/04 10:12:48;;;;;;;3.30;3.00;;;;;;;20.42;29.21;102116.45;104907;1287;74813;-92
2022/12/04 10:15:32;;;;;;;5.00;3.10;;;;;;;20.43;29.17;102110.96;104681;1292;82094;-92
2022/12/04 10:18:09;;;;;;;4.10;3.00;;;;;;;20.42;29.34;102107.02;105542;1283;72385;-92
2022/12/04 10:21:11;;;;;;;3.50;3.10;;;;;;;20.44;29.31;102107.46;105354;1293;68963;-90
2022/12/04 10:24:03;;;;;;;3.70;3.00;;;;;;;20.44;29.23;102103.27;105347;1284;69084;-92
2022/12/04 10:26:35;;;;;;;3.30;3.00;;;;;;;20.44;29.24;102101.09;105261;1294;74422;-91
2022/12/04 10:29:07;;;;;;;3.30;2.70;;;;;;;20.46;29.23;102100.92;105493;1289;82919;-91
2022/12/04 10:31:36;;;;;;;3.60;2.90;;;;;;;20.47;29.14;102099.36;105728;1295;72660;-90
2022/12/04 10:34:06;;;;;;;5.00;2.80;;;;;;;20.48;29.38;102100.20;106112;1287;69004;-91
2022/12/04 10:45:01;;;;;;;3.40;2.90;;;;;;;20.52;29.15;102083.79;105485;1283;71770;-91
2022/12/04 10:47:27;;;;;;;3.50;3.00;;;;;;;20.53;29.31;102085.46;105149;1292;69640;-92
2022/12/04 10:50:01;;;;;;;3.40;3.10;;;;;;;20.53;29.22;102086.79;105027;1294;69137;-92
2022/12/04 10:52:27;;;;;;;4.00;3.20;;;;;;;20.54;29.22;102084.02;104933;1291;74443;-91
2022/12/04 10:54:59;;;;;;;3.50;3.00;;;;;;;20.55;29.24;102080.77;105009;1290;69198;-90
2022/12/04 11:03:02;;;;;;;4.00;3.00;;;;;;;20.57;29.29;102079.08;105537;1283;68325;-92
2022/12/04 11:05:34;;;;;;;4.10;3.10;;;;;;;20.58;29.28;102082.34;105197;1281;75244;-92
2022/12/04 11:08:02;;;;;;;3.70;3.30;;;;;;;20.59;29.29;102077.80;105174;1271;82113;-92
2022/12/04 11:10:40;;;;;;;6.10;3.20;;;;;;;20.59;29.28;102075.76;105024;1287;72388;-91
2022/12/04 11:13:16;;;;;;;3.50;3.10;;;;;;;20.61;29.11;102078.60;105493;1291;69170;-91
2022/12/04 11:15:48;;;;;;;3.20;2.90;;;;;;;20.62;29.27;102079.75;105187;1289;69109;-91
2022/12/04 11:18:19;;;;;;;5.10;3.10;;;;;;;20.62;29.26;102074.45;105298;1288;74330;-91
2022/12/04 11:20:55;;;;;;;;;;;;;;;20.63;29.34;102068.45;105757;1288;81957;-91
2022/12/04 11:23:20;;;;;;;3.70;3.10;;;;;;;20.61;29.32;102061.84;105411;1291;72343;-93
2022/12/04 11:25:48;;;;;;;4.90;2.90;;;;;;;20.63;29.28;102057.59;105364;1288;69267;-91
2022/12/04 11:28:16;;;;;;;3.50;3.20;;;;;;;20.65;29.26;102053.20;105366;1271;69144;-91
2022/12/04 11:30:49;;;;;;;3.80;3.20;;;;;;;20.66;29.18;102052.51;105390;1275;74316;-90
2022/12/04 11:48:01;;;;;;;3.50;2.70;;;;;;;20.69;29.15;102045.80;106174;1285;82761;-92
2022/12/04 11:50:50;;;;;;;5.30;3.00;;;;;;;20.71;29.15;102045.17;106133;1286;72260;-92
2022/12/04 11:53:34;;;;;;;3.40;2.70;;;;;;;20.72;29.26;102035.23;105934;1287;69298;-92
2022/12/04 11:56:15;;;;;;;3.50;2.90;;;;;;;20.73;29.20;102030.45;106092;1280;68969;-92
2022/12/04 11:58:49;;;;;;;;;;;;;;;20.74;29.27;102034.11;105742;1289;75529;-92
2022/12/04 12:01:18;;;;;;;3.30;2.70;;;;;;;20.73;29.16;102036.08;105776;1282;83139;-92
2022/12/04 12:04:05;;;;;;;3.90;2.90;;;;;;;20.75;29.16;102027.08;106008;1287;72364;-92
2022/12/04 12:07:13;;;;;;;3.50;2.80;;;;;;;20.76;29.12;102010.49;105705;1291;69097;-89
2022/12/04 12:09:44;;;;;;;3.50;2.90;;;;;;;20.77;29.31;102003.94;105779;1281;68988;-90
2022/12/04 12:15:01;;;;;;;3.50;3.00;;;;;;;20.79;29.19;102005.88;105323;1283;80380;-92
2022/12/04 12:17:45;;;;;;;3.70;3.10;;;;;;;20.81;29.09;102005.97;105174;1279;72332;-92
2022/12/04 12:20:14;;;;;;;4.10;3.30;;;;;;;20.81;29.23;102002.80;105292;1292;66846;-92
2022/12/04 12:22:50;;;;;;;4.60;3.30;;;;;;;20.82;29.15;102008.09;105417;1291;68356;-92
2022/12/04 12:25:25;;;;;;;5.40;3.30;;;;;;;20.82;29.11;102007.95;106179;1281;74619;-92
2022/12/04 12:28:21;;;;;;;4.30;3.20;;;;;;;20.84;29.16;102011.91;105710;1291;81886;-92
2022/12/04 12:31:29;;;;;;;4.10;3.50;;;;;;;20.83;29.11;102008.02;105990;1276;72751;-91
2022/12/04 12:33:57;;;;;;;4.10;3.40;;;;;;;20.84;29.24;102012.70;105337;1297;68652;-92
2022/12/04 12:36:30;;;;;;;4.00;3.50;;;;;;;20.85;29.13;102018.83;105300;1294;69137;-90
2022/12/04 12:39:02;;;;;;;4.90;3.80;;;;;;;20.87;29.08;102013.29;105241;1294;74672;-91
2022/12/04 12:41:51;;;;;;;5.10;3.60;;;;;;;20.88;29.09;102010.28;105535;1288;81932;-92
2022/12/04 12:44:17;;;;;;;4.50;3.70;;;;;;;20.89;29.16;102005.19;105767;1288;72466;-92
2022/12/04 12:46:51;;;;;;;4.80;3.50;;;;;;;20.90;29.11;102005.78;105980;1293;68897;-90
2022/12/04 12:49:20;;;;;;;3.80;3.30;;;;;;;20.91;29.21;102004.38;106020;1278;68222;-92
2022/12/04 12:51:51;;;;;;;4.30;3.80;;;;;;;20.92;29.15;102009.06;106012;1285;74498;-91
2022/12/04 12:54:51;;;;;;;5.40;3.60;;;;;;;20.93;29.14;102008.63;105944;1288;81931;-87
2022/12/04 12:57:28;;;;;;;4.10;3.60;;;;;;;20.94;29.31;102011.14;105378;1276;72511;31
2022/12/04 13:02:42;;;;;;;3.80;3.40;;;;;;;20.97;29.11;102001.90;105380;1282;69147;-92